Skip Navigation Links
NOAA logo - Click to go to the NOAA homepage
NOAA's National Weather Service
Alaska Aviation Weather Unit
  NWS logo - Click to go to the NWS homepage
Left Navbar Graphic     09 AKDT = 17 GMT

   
NOAA is celebrating 200 years of science, service, and stewardship. Visit the NOAA 200th celebration Web site to learn more.
USA.gov is the U.S. Government's official Web portal to all Federal, state and local government Web resources and services.
Facebook
NWS on Facebook

Important Change Regarding the AAWU Web Presence

 

Over the last several months, the AAWU has been working to navigate its webpages to a nationally supported server. Security, as well as other needs, have necessitated the change.  In the process, we have made an effort to enhance the functionality of our website, as well as some of our products. As of June 20, 2017, aawu.arh.noaa.gov will be discontinued. The new AAWU web address is weather.gov/aawu. It is now live and will run in-parallel with the old site until it is discontinued. Please send any feedback or questions regarding the new webpages to nws.ar.aawu.webauthors@noaa.gov.  Thank you for your patience during this time of transition.
AAWU Home :: Display TAF Add Bookmark
METAR PANI 271116Z AUTO 12005KT 10SM BKN046 OVC050 03/02 A2993 RMK
     AO1=

METAR PANI 271136Z AUTO 11007KT 10SM FEW036 SCT046 OVC050 03/02 A2993
     RMK AO1=

METAR PANI 271156Z AUTO 11006KT 10SM FEW043 BKN050 OVC065 03/02 A2993
     RMK AO1 70002 10060 20030 52003=

METAR PANI 271216Z AUTO 10006KT 10SM SCT040 OVC050 03/01 A2993 RMK
 AO1=

METAR PANI 271236Z AUTO 12004KT 10SM BKN033 BKN039 OVC050 03/01
 A2993 RMK AO1=

METAR PANI 271256Z AUTO 12004KT 10SM BKN023 OVC030 03/02 A2993 RMK
     AO1=

METAR PANI 271316Z AUTO 12005KT 10SM OVC023 03/02 A2993 RMK AO1=

METAR PANI 271336Z AUTO 11006KT 10SM OVC023 03/02 A2993 RMK AO1=

METAR PANI 271356Z AUTO 12005KT 10SM SCT023 OVC031 03/01 A2993 RMK
     AO1=

METAR PANI 271416Z AUTO 12004KT 10SM BKN033 OVC065 03/01 A2993 RMK
     AO1=

METAR PANI 271436Z AUTO 12005KT 10SM SCT024 BKN035 BKN065 03/02 A2993
     RMK AO1=

METAR PANI 271456Z AUTO 11005KT 10SM SCT018 BKN022 OVC029 03/02
 A2993 RMK AO1 54000=

METAR PANI 271516Z AUTO 11005KT 10SM BKN021 OVC025 03/02 A2993 RMK
     AO1=

METAR PANI 271536Z AUTO 11005KT 10SM BKN022 BKN027 OVC049 03/02 A2993
     RMK AO1=

METAR PANI 271556Z AUTO 12005KT 10SM SCT020 BKN028 OVC034 03/02 A2993
     RMK AO1 P0001=

METAR PANI 271616Z AUTO 13003KT 10SM BKN022 OVC032 03/02 A2993 RMK
 AO1 P0001=

METAR PANI 271636Z AUTO 12004KT 10SM BKN020 OVC029 04/03 A2993 RMK AO1
     P0002=

METAR PANI 271656Z AUTO 13005KT 10SM BKN020 OVC027 04/03 A2993 RMK AO1
     P0003=

METAR PANI 271716Z AUTO 13005KT 10SM OVC020 04/03 A2993 RMK AO1
 P0001=


NOAA's National Weather Service
Alaska Aviation Weather Unit
6930 Sand Lake Road
Anchorage, AK 99502-1845
Disclaimer
Credits
Glossary
Privacy Policy
About Us
Career Opportunities
Contact AAWU Internet Services Site last modified: April, 17th 2012